Germanton, North Carolina
Current Conditions -  °F | °C
As of 5:54 AM on Saturday 20 Dec 2014 (Local Time) from KINT Reporting Station
Overcast Overcast  
Wind Chill: 29°   Ceiling: 5500
Heat Index: 35°   Visibility: 10mi
Dew Point: 25°   Wind: 8mph
Humidity: 67%   Direction: 30°NNE
Pressure: 30.25"   Gusts: NA
Location:  36.26°N, 80.23°W
Report Text: KINT 201054Z AUTO 03007KT 10SM BKN055 OVC100 02/M04 A3025 RMK AO2 SLP245 T00171039
Loading
Personal Weather Stations






























Interactive Weather Map New forecast layout! Learn more

10-Day Weather Forecast

Advertisements
Track Severe Weather on mobile